createdAt,value
2023-03-21T00:00:30.147Z,14.00
2023-03-21T00:02:57.104Z,14.10
2023-03-21T00:05:24.177Z,14.00
2023-03-21T00:07:51.940Z,14.00
2023-03-21T00:10:29.701Z,14.00
2023-03-21T00:13:02.258Z,14.00
2023-03-21T00:15:39.939Z,14.00
2023-03-21T00:18:13.251Z,14.00
2023-03-21T00:20:40.146Z,14.00
2023-03-21T00:23:07.043Z,14.00
2023-03-21T00:25:34.002Z,14.00
2023-03-21T00:28:08.413Z,13.90
2023-03-21T00:30:35.725Z,13.90
2023-03-21T00:33:12.013Z,13.90
2023-03-21T00:36:05.881Z,13.90
2023-03-21T00:38:34.663Z,13.90
2023-03-21T00:41:18.878Z,13.80
2023-03-21T00:43:48.177Z,13.90
2023-03-21T00:46:15.501Z,13.80
2023-03-21T00:48:42.514Z,13.80
2023-03-21T00:51:26.560Z,13.80
2023-03-21T00:53:55.585Z,13.80
2023-03-21T00:56:23.094Z,13.80
2023-03-21T00:58:51.183Z,13.80
2023-03-21T01:01:19.376Z,13.80
2023-03-21T01:03:51.164Z,13.80
2023-03-21T01:06:19.670Z,13.70
2023-03-21T01:08:52.109Z,13.70
2023-03-21T01:11:22.904Z,13.70
2023-03-21T01:13:56.142Z,13.70
2023-03-21T01:16:27.206Z,13.70
2023-03-21T01:18:54.267Z,13.70
2023-03-21T01:21:23.339Z,13.70
2023-03-21T01:23:50.721Z,13.70
2023-03-21T01:26:17.879Z,13.70
2023-03-21T01:28:45.385Z,13.70
2023-03-21T01:31:16.083Z,13.60
2023-03-21T01:33:43.673Z,13.60
2023-03-21T01:36:23.704Z,13.60
2023-03-21T01:38:53.839Z,13.50
2023-03-21T01:41:42.879Z,13.50
2023-03-21T01:44:26.368Z,13.50
2023-03-21T01:47:12.169Z,13.50
2023-03-21T01:49:49.770Z,13.50
2023-03-21T01:52:35.903Z,13.40
2023-03-21T01:55:13.100Z,13.40
2023-03-21T01:58:05.487Z,13.40
2023-03-21T02:00:51.859Z,13.40
2023-03-21T02:03:35.684Z,13.30
2023-03-21T02:06:30.325Z,13.30
2023-03-21T02:09:08.749Z,13.30
2023-03-21T02:11:37.407Z,13.30
2023-03-21T02:14:07.621Z,13.30
2023-03-21T02:17:07.732Z,13.30
2023-03-21T02:19:53.302Z,13.30
2023-03-21T02:22:54.120Z,13.30
2023-03-21T02:25:36.601Z,13.30
2023-03-21T02:28:14.306Z,13.20
2023-03-21T02:30:52.164Z,13.20
2023-03-21T02:33:42.393Z,13.20
2023-03-21T02:36:19.215Z,13.10
2023-03-21T02:39:07.974Z,13.10
2023-03-21T02:41:40.395Z,13.10
2023-03-21T02:44:14.244Z,13.00
2023-03-21T02:46:59.733Z,13.00
2023-03-21T02:49:43.019Z,13.00
2023-03-21T02:52:37.472Z,13.00
2023-03-21T02:55:19.671Z,13.00
2023-03-21T02:57:54.785Z,12.90
2023-03-21T03:00:26.196Z,12.90
2023-03-21T03:03:08.196Z,12.90
2023-03-21T03:05:47.291Z,12.80
2023-03-21T03:08:41.236Z,12.80
2023-03-21T03:11:23.092Z,12.80
2023-03-21T03:14:31.590Z,12.80
2023-03-21T03:17:03.552Z,12.80
2023-03-21T03:19:49.964Z,12.80
2023-03-21T03:22:36.044Z,12.80
2023-03-21T03:25:23.018Z,12.90
2023-03-21T03:27:56.121Z,12.90
2023-03-21T03:30:39.265Z,12.80
2023-03-21T03:33:10.472Z,12.80
2023-03-21T03:35:37.679Z,12.80
2023-03-21T03:38:07.813Z,12.80
2023-03-21T03:40:43.832Z,12.80
2023-03-21T03:43:32.075Z,12.80
2023-03-21T03:46:06.309Z,12.80
2023-03-21T03:48:46.389Z,12.80
2023-03-21T03:51:26.198Z,12.80
2023-03-21T03:54:14.702Z,12.80
2023-03-21T03:56:43.249Z,12.70
2023-03-21T03:59:11.963Z,12.70
2023-03-21T04:01:53.695Z,12.70
2023-03-21T04:04:22.801Z,12.70
2023-03-21T04:06:53.971Z,12.70
2023-03-21T04:09:37.196Z,12.70
2023-03-21T04:12:10.144Z,12.70
2023-03-21T04:14:45.783Z,12.70
2023-03-21T04:17:15.783Z,12.70
2023-03-21T04:19:43.102Z,12.60
2023-03-21T04:22:10.778Z,12.60
2023-03-21T04:24:41.953Z,12.60
2023-03-21T04:27:08.920Z,12.60
2023-03-21T04:29:41.420Z,12.50
2023-03-21T04:32:27.236Z,12.50
2023-03-21T04:35:04.106Z,12.50
2023-03-21T04:37:33.807Z,12.50
2023-03-21T04:40:06.736Z,12.50
2023-03-21T04:42:35.116Z,12.40
2023-03-21T04:45:02.458Z,12.50
2023-03-21T04:47:30.152Z,12.50
2023-03-21T04:49:57.414Z,12.40
2023-03-21T04:52:25.534Z,12.40
2023-03-21T04:54:52.664Z,12.40
2023-03-21T04:57:21.404Z,12.30
2023-03-21T04:59:48.355Z,12.30
2023-03-21T05:02:16.044Z,12.30
2023-03-21T05:04:43.584Z,12.30
2023-03-21T05:07:10.804Z,12.30
2023-03-21T05:09:37.875Z,12.30
2023-03-21T05:12:05.481Z,12.30
2023-03-21T05:14:33.628Z,12.30
2023-03-21T05:17:05.210Z,12.30
2023-03-21T05:19:36.266Z,12.30
2023-03-21T05:22:09.238Z,12.30
2023-03-21T05:24:39.300Z,12.30
2023-03-21T05:27:08.965Z,12.30
2023-03-21T05:29:42.659Z,12.30
2023-03-21T05:32:10.929Z,12.30
2023-03-21T05:34:37.812Z,12.20
2023-03-21T05:37:04.702Z,12.20
2023-03-21T05:39:46.278Z,12.20
2023-03-21T05:42:21.090Z,12.30
2023-03-21T05:44:49.101Z,12.30
2023-03-21T05:47:18.488Z,12.30
2023-03-21T05:49:47.562Z,12.30
2023-03-21T05:52:16.280Z,12.30
2023-03-21T05:54:45.328Z,12.40
2023-03-21T05:57:12.656Z,12.40
2023-03-21T05:59:59.912Z,12.30
2023-03-21T06:02:28.475Z,12.30
2023-03-21T06:04:59.626Z,12.30
2023-03-21T06:07:26.879Z,12.30
2023-03-21T06:09:54.050Z,12.30
2023-03-21T06:12:21.268Z,12.30
2023-03-21T06:15:15.399Z,12.30
2023-03-21T06:17:53.009Z,12.30
2023-03-21T06:20:20.115Z,12.30
2023-03-21T06:22:54.800Z,12.40
2023-03-21T06:25:22.138Z,12.40
2023-03-21T06:27:49.382Z,12.40
2023-03-21T06:30:18.340Z,12.40
2023-03-21T06:32:56.900Z,12.40
2023-03-21T06:35:24.005Z,12.50
2023-03-21T06:37:51.029Z,12.50
2023-03-21T06:40:19.458Z,12.50
2023-03-21T06:42:46.445Z,12.50
2023-03-21T06:45:13.999Z,12.50
2023-03-21T06:47:42.541Z,12.60
2023-03-21T06:50:19.018Z,12.60
2023-03-21T06:52:46.016Z,12.60
2023-03-21T06:55:14.164Z,12.70
2023-03-21T06:57:41.654Z,12.70
2023-03-21T07:00:11.551Z,12.60
2023-03-21T07:02:43.233Z,12.60
2023-03-21T07:05:18.801Z,12.70
2023-03-21T07:07:45.781Z,12.70
2023-03-21T07:10:12.747Z,12.80
2023-03-21T07:12:47.873Z,12.80
2023-03-21T07:15:19.758Z,12.80
2023-03-21T07:17:50.193Z,12.80
2023-03-21T07:20:17.406Z,12.80
2023-03-21T07:22:44.524Z,12.90
2023-03-21T07:25:14.450Z,12.90
2023-03-21T07:27:42.259Z,12.90
2023-03-21T07:30:10.447Z,13.00
2023-03-21T07:32:40.364Z,13.00
2023-03-21T07:35:10.949Z,13.00
2023-03-21T07:37:38.324Z,13.10
2023-03-21T07:40:10.721Z,13.10
2023-03-21T07:42:42.578Z,13.10
2023-03-21T07:45:16.593Z,13.10
2023-03-21T07:47:46.506Z,13.20
2023-03-21T07:50:14.205Z,13.20
2023-03-21T07:52:41.437Z,13.20
2023-03-21T07:55:09.076Z,13.30
2023-03-21T07:57:36.615Z,13.30
2023-03-21T08:00:05.355Z,13.40
2023-03-21T08:02:40.202Z,13.40
2023-03-21T08:05:07.387Z,13.50
2023-03-21T08:07:34.434Z,13.50
2023-03-21T08:10:01.405Z,13.60
2023-03-21T08:12:28.296Z,13.60
2023-03-21T08:14:55.244Z,13.60
2023-03-21T08:17:22.302Z,13.70
2023-03-21T08:19:49.233Z,13.70
2023-03-21T08:22:16.327Z,13.80
2023-03-21T08:24:45.883Z,13.80
2023-03-21T08:27:13.109Z,13.80
2023-03-21T08:29:42.296Z,13.90
2023-03-21T08:32:09.396Z,13.90
2023-03-21T08:34:36.577Z,13.90
2023-03-21T08:37:04.285Z,14.00
2023-03-21T08:39:31.313Z,14.00
2023-03-21T08:41:58.251Z,14.10
2023-03-21T08:44:26.042Z,14.10
2023-03-21T08:46:53.224Z,14.20
2023-03-21T08:49:20.160Z,14.20
2023-03-21T08:51:47.397Z,14.20
2023-03-21T08:54:25.735Z,14.30
2023-03-21T08:56:52.857Z,14.30
2023-03-21T08:59:19.887Z,14.30
2023-03-21T09:02:06.062Z,14.30
2023-03-21T09:04:33.031Z,14.30
2023-03-21T09:07:05.208Z,14.30
2023-03-21T09:09:32.222Z,14.40
2023-03-21T09:11:59.785Z,14.40
2023-03-21T09:14:28.885Z,14.40
2023-03-21T09:16:56.169Z,14.50
2023-03-21T09:19:27.252Z,14.50
2023-03-21T09:21:55.787Z,14.60
2023-03-21T09:24:22.844Z,14.60
2023-03-21T09:26:53.011Z,14.70
2023-03-21T09:29:21.403Z,14.70
2023-03-21T09:31:48.753Z,14.70
2023-03-21T09:34:15.902Z,14.80
2023-03-21T09:36:44.438Z,14.80
2023-03-21T09:39:12.774Z,14.90
2023-03-21T09:41:51.702Z,14.90
2023-03-21T09:44:44.562Z,14.90
2023-03-21T09:47:25.088Z,15.00
2023-03-21T09:50:14.927Z,15.00
2023-03-21T09:52:58.442Z,15.10
2023-03-21T09:55:31.069Z,15.10
2023-03-21T09:58:16.665Z,15.20
2023-03-21T10:00:49.441Z,15.20
2023-03-21T10:03:35.130Z,15.20
2023-03-21T10:06:11.313Z,15.30
2023-03-21T10:08:41.494Z,15.30
2023-03-21T10:11:31.294Z,15.40
2023-03-21T10:14:07.329Z,15.40
2023-03-21T10:16:51.950Z,15.50
2023-03-21T10:19:20.321Z,15.50
2023-03-21T10:22:01.317Z,15.50
2023-03-21T10:24:31.258Z,15.60
2023-03-21T10:26:58.613Z,15.70
2023-03-21T10:29:32.240Z,15.70
2023-03-21T10:31:59.495Z,15.80
2023-03-21T10:34:50.961Z,15.80
2023-03-21T10:37:17.926Z,15.80
2023-03-21T10:39:52.167Z,15.90
2023-03-21T10:42:32.826Z,16.00
2023-03-21T10:44:59.938Z,16.00
2023-03-21T10:47:32.529Z,16.10
2023-03-21T10:50:11.144Z,16.10
2023-03-21T10:52:45.525Z,16.20
2023-03-21T10:55:32.127Z,16.20
2023-03-21T10:58:19.134Z,16.20
2023-03-21T11:00:47.679Z,16.30
2023-03-21T11:03:31.430Z,16.30
2023-03-21T11:06:22.587Z,16.30
2023-03-21T11:08:55.366Z,16.40
2023-03-21T11:11:28.117Z,16.40
2023-03-21T11:14:01.056Z,16.50
2023-03-21T11:16:42.087Z,16.50
2023-03-21T11:19:26.674Z,16.50
2023-03-21T11:21:56.437Z,16.50
2023-03-21T11:24:23.574Z,16.60
2023-03-21T11:26:51.389Z,16.60
2023-03-21T11:29:32.852Z,16.60
2023-03-21T11:32:11.764Z,16.70
2023-03-21T11:34:48.405Z,16.70
2023-03-21T11:37:39.458Z,16.70
2023-03-21T11:40:21.029Z,16.80
2023-03-21T11:42:51.826Z,16.80
2023-03-21T11:45:30.901Z,16.80
2023-03-21T11:48:00.280Z,16.80
2023-03-21T11:50:30.520Z,16.90
2023-03-21T11:53:15.534Z,16.90
2023-03-21T11:55:46.387Z,16.90
2023-03-21T11:58:30.742Z,16.90
2023-03-21T12:01:10.087Z,17.00
2023-03-21T12:03:58.820Z,17.00
2023-03-21T12:06:47.680Z,17.10
2023-03-21T12:09:40.969Z,17.10
2023-03-21T12:12:14.892Z,17.10
2023-03-21T12:14:58.318Z,17.10
2023-03-21T12:17:49.180Z,17.20
2023-03-21T12:20:40.926Z,17.20
2023-03-21T12:23:27.436Z,17.30
2023-03-21T12:25:57.978Z,17.30
2023-03-21T12:28:46.273Z,17.40
2023-03-21T12:31:52.090Z,17.40
2023-03-21T12:34:47.272Z,17.50
2023-03-21T12:37:28.338Z,17.50
2023-03-21T12:40:19.284Z,17.50
2023-03-21T12:43:30.953Z,17.60
2023-03-21T12:46:14.169Z,17.60
2023-03-21T12:48:47.726Z,17.70
2023-03-21T12:51:19.125Z,17.80
2023-03-21T12:54:06.022Z,17.80
2023-03-21T12:57:02.171Z,18.00
2023-03-21T12:59:55.527Z,18.00
2023-03-21T13:02:34.827Z,18.00
2023-03-21T13:05:10.513Z,18.00
2023-03-21T13:07:43.397Z,18.10
2023-03-21T13:10:22.406Z,18.20
2023-03-21T13:13:27.124Z,18.30
2023-03-21T13:16:00.429Z,18.30
2023-03-21T13:18:42.228Z,18.40
2023-03-21T13:21:18.144Z,18.40
2023-03-21T13:24:17.315Z,18.50
2023-03-21T13:26:49.993Z,18.60
2023-03-21T13:29:42.553Z,18.60
2023-03-21T13:32:40.668Z,18.70
2023-03-21T13:35:32.696Z,18.70
2023-03-21T13:38:03.132Z,18.80
2023-03-21T13:40:42.867Z,18.80
2023-03-21T13:43:32.861Z,18.90
2023-03-21T13:46:25.498Z,19.00
2023-03-21T13:48:59.704Z,19.10
2023-03-21T13:51:29.797Z,19.20
2023-03-21T13:54:01.648Z,19.20
2023-03-21T13:56:30.579Z,19.30
2023-03-21T13:59:02.440Z,19.40
2023-03-21T14:01:39.804Z,19.40
2023-03-21T14:04:14.854Z,19.50
2023-03-21T14:06:54.789Z,19.50
2023-03-21T14:09:38.214Z,19.50
2023-03-21T14:12:11.430Z,19.60
2023-03-21T14:14:51.402Z,19.70
2023-03-21T14:17:35.220Z,19.70
2023-03-21T14:20:12.301Z,19.80
2023-03-21T14:22:40.516Z,19.90
2023-03-21T14:25:15.569Z,19.90
2023-03-21T14:27:53.613Z,19.90
2023-03-21T14:30:27.486Z,19.90
2023-03-21T14:32:58.969Z,20.00
2023-03-21T14:35:31.309Z,20.10
2023-03-21T14:38:05.391Z,20.10
2023-03-21T14:40:32.318Z,20.10
2023-03-21T14:43:05.876Z,20.20
2023-03-21T14:45:36.928Z,20.20
2023-03-21T14:48:16.420Z,20.20
2023-03-21T14:50:51.738Z,20.20
2023-03-21T14:53:30.863Z,20.30
2023-03-21T14:56:17.744Z,20.30
2023-03-21T14:58:46.183Z,20.40
2023-03-21T15:01:17.452Z,20.60
2023-03-21T15:03:46.238Z,20.90
2023-03-21T15:06:14.283Z,21.10
2023-03-21T15:08:58.158Z,21.50
2023-03-21T15:11:38.798Z,21.90
2023-03-21T15:14:08.357Z,22.20
2023-03-21T15:16:37.184Z,22.40
2023-03-21T15:19:05.249Z,22.50
2023-03-21T15:21:38.184Z,22.50
2023-03-21T15:24:39.957Z,22.60
2023-03-21T15:27:13.735Z,22.60
2023-03-21T15:29:43.246Z,22.80
2023-03-21T15:32:18.288Z,22.80
2023-03-21T15:34:46.245Z,22.70
2023-03-21T15:37:25.534Z,22.60
2023-03-21T15:39:52.998Z,22.50
2023-03-21T15:42:34.033Z,22.30
2023-03-21T15:45:29.148Z,22.10
2023-03-21T15:48:13.095Z,21.90
2023-03-21T15:50:52.184Z,21.80
2023-03-21T15:53:19.657Z,21.60
2023-03-21T15:55:53.059Z,21.50
2023-03-21T15:58:26.770Z,21.30
2023-03-21T16:00:57.161Z,21.20
2023-03-21T16:03:28.354Z,21.10
2023-03-21T16:06:25.677Z,21.00
2023-03-21T16:09:03.388Z,20.90
2023-03-21T16:11:48.174Z,20.80
2023-03-21T16:14:15.148Z,20.70
2023-03-21T16:16:42.745Z,20.60
2023-03-21T16:19:09.773Z,20.50
2023-03-21T16:21:38.502Z,20.40
2023-03-21T16:24:06.505Z,20.40
2023-03-21T16:26:36.895Z,20.30
2023-03-21T16:29:05.534Z,20.20
2023-03-21T16:31:35.760Z,20.20
2023-03-21T16:34:04.663Z,20.10
2023-03-21T16:36:40.227Z,20.10
2023-03-21T16:39:21.582Z,20.00
2023-03-21T16:41:49.089Z,20.00
2023-03-21T16:44:16.410Z,19.90
2023-03-21T16:46:43.586Z,19.90
2023-03-21T16:49:26.838Z,19.80
2023-03-21T16:51:55.833Z,19.80
2023-03-21T16:54:23.276Z,19.70
2023-03-21T16:56:55.522Z,19.60
2023-03-21T16:59:22.493Z,19.60
2023-03-21T17:01:50.663Z,19.50
2023-03-21T17:04:18.908Z,19.50
2023-03-21T17:06:49.308Z,19.40
2023-03-21T17:09:19.866Z,19.40
2023-03-21T17:11:47.508Z,19.30
2023-03-21T17:14:17.964Z,19.20
2023-03-21T17:16:45.824Z,19.20
2023-03-21T17:19:18.774Z,19.10
2023-03-21T17:21:45.852Z,19.10
2023-03-21T17:24:13.546Z,19.00
2023-03-21T17:26:43.629Z,19.00
2023-03-21T17:29:14.244Z,18.90
2023-03-21T17:31:42.435Z,18.90
2023-03-21T17:34:09.728Z,18.80
2023-03-21T17:36:40.965Z,18.80
2023-03-21T17:39:13.716Z,18.70
2023-03-21T17:41:41.321Z,18.70
2023-03-21T17:44:08.233Z,18.60
2023-03-21T17:46:39.745Z,18.60
2023-03-21T17:49:07.323Z,18.60
2023-03-21T17:51:34.785Z,18.50
2023-03-21T17:54:01.946Z,18.50
2023-03-21T17:56:31.764Z,18.40
2023-03-21T17:59:01.451Z,18.40
2023-03-21T18:01:30.805Z,18.40
2023-03-21T18:03:58.634Z,18.30
2023-03-21T18:06:26.812Z,18.30
2023-03-21T18:08:54.926Z,18.30
2023-03-21T18:11:24.107Z,18.30
2023-03-21T18:13:51.610Z,18.20
2023-03-21T18:16:22.470Z,18.20
2023-03-21T18:18:50.926Z,18.20
2023-03-21T18:21:20.192Z,18.20
2023-03-21T18:23:50.622Z,18.20
2023-03-21T18:26:23.845Z,18.10
2023-03-21T18:29:43.875Z,18.10
2023-03-21T18:31:38.289Z,18.10
2023-03-21T18:34:05.351Z,18.10
2023-03-21T18:36:34.758Z,18.10
2023-03-21T18:39:03.486Z,18.00
2023-03-21T18:41:31.095Z,18.00
2023-03-21T18:44:01.256Z,18.00
2023-03-21T18:46:32.895Z,17.90
2023-03-21T18:49:19.943Z,17.90
2023-03-21T18:51:47.942Z,17.90
2023-03-21T18:54:14.992Z,17.90
2023-03-21T18:59:34.544Z,17.90
2023-03-21T19:02:03.226Z,17.90
2023-03-21T19:04:30.629Z,17.80
2023-03-21T19:06:58.617Z,17.80
2023-03-21T19:09:31.317Z,17.80
2023-03-21T19:11:59.724Z,17.80
2023-03-21T19:14:27.035Z,17.80
2023-03-21T19:17:47.222Z,17.80
2023-03-21T19:19:43.654Z,17.70
2023-03-21T19:22:11.351Z,17.70
2023-03-21T19:24:39.647Z,17.70
2023-03-21T19:27:07.088Z,17.70
2023-03-21T19:29:34.268Z,17.60
2023-03-21T19:32:01.425Z,17.60
2023-03-21T19:34:29.386Z,17.60
2023-03-21T19:36:57.521Z,17.60
2023-03-21T19:39:25.125Z,17.60
2023-03-21T19:41:55.415Z,17.60
2023-03-21T19:44:28.532Z,17.50
2023-03-21T19:46:55.485Z,17.50
2023-03-21T19:49:34.601Z,17.50
2023-03-21T19:52:10.204Z,17.50
2023-03-21T19:54:37.777Z,17.50
2023-03-21T19:57:04.765Z,17.50
2023-03-21T19:59:32.149Z,17.50
2023-03-21T20:02:17.922Z,17.50
2023-03-21T20:04:46.672Z,17.40
2023-03-21T20:07:13.605Z,17.40
2023-03-21T20:09:52.235Z,17.40
2023-03-21T20:12:21.933Z,17.40
2023-03-21T20:14:49.280Z,17.40
2023-03-21T20:17:16.924Z,17.40
2023-03-21T20:19:43.955Z,17.40
2023-03-21T20:22:21.971Z,17.40
2023-03-21T20:24:54.124Z,17.40
2023-03-21T20:27:25.075Z,17.30
2023-03-21T20:30:10.072Z,17.30
2023-03-21T20:32:42.090Z,17.30
2023-03-21T20:35:20.746Z,17.30
2023-03-21T20:37:54.415Z,17.30
2023-03-21T20:40:21.919Z,17.20
2023-03-21T20:42:50.295Z,17.30
2023-03-21T20:45:17.527Z,17.30
2023-03-21T20:47:44.602Z,17.20
2023-03-21T20:50:14.059Z,17.20
2023-03-21T20:53:06.497Z,17.20
2023-03-21T20:55:29.714Z,17.20
2023-03-21T20:57:56.681Z,17.20
2023-03-21T21:00:24.518Z,17.20
2023-03-21T21:02:51.891Z,17.20
2023-03-21T21:05:27.852Z,17.10
2023-03-21T21:07:55.226Z,17.10
2023-03-21T21:10:22.477Z,17.20
2023-03-21T21:12:49.422Z,17.10
2023-03-21T21:15:17.007Z,17.10
2023-03-21T21:18:04.884Z,17.10
2023-03-21T21:20:33.608Z,17.10
2023-03-21T21:23:01.024Z,17.10
2023-03-21T21:25:31.727Z,17.10
2023-03-21T21:27:58.713Z,17.10
2023-03-21T21:30:25.644Z,17.00
2023-03-21T21:32:53.938Z,17.00
2023-03-21T21:35:22.431Z,17.00
2023-03-21T21:37:51.136Z,17.00
2023-03-21T21:40:20.588Z,17.00
2023-03-21T21:42:48.017Z,16.90
2023-03-21T21:45:15.853Z,16.90
2023-03-21T21:47:44.566Z,16.90
2023-03-21T21:50:12.618Z,16.90
2023-03-21T21:52:43.452Z,16.80
2023-03-21T21:55:10.488Z,16.80
2023-03-21T21:57:37.540Z,16.80
2023-03-21T22:00:06.927Z,16.80
2023-03-21T22:02:40.149Z,16.80
2023-03-21T22:05:08.844Z,16.80
2023-03-21T22:07:37.493Z,16.70
2023-03-21T22:10:05.186Z,16.70
2023-03-21T22:12:32.373Z,16.70
2023-03-21T22:14:59.503Z,16.70
2023-03-21T22:17:26.557Z,16.60
2023-03-21T22:20:05.063Z,16.70
2023-03-21T22:22:34.090Z,16.60
2023-03-21T22:25:01.086Z,16.60
2023-03-21T22:27:28.085Z,16.60
2023-03-21T22:29:56.010Z,16.60
2023-03-21T22:32:23.021Z,16.50
2023-03-21T22:34:50.044Z,16.50
2023-03-21T22:37:16.978Z,16.50
2023-03-21T22:39:43.973Z,16.50
2023-03-21T22:42:11.015Z,16.40
2023-03-21T22:44:38.295Z,16.40
2023-03-21T22:47:08.265Z,16.40
2023-03-21T22:49:35.822Z,16.40
2023-03-21T22:52:03.528Z,16.40
2023-03-21T22:54:31.006Z,16.30
2023-03-21T22:56:59.592Z,16.30
2023-03-21T22:59:27.392Z,16.30
2023-03-21T23:01:54.758Z,16.30
2023-03-21T23:04:21.864Z,16.20
2023-03-21T23:06:49.190Z,16.20
2023-03-21T23:09:17.532Z,16.20
2023-03-21T23:11:49.051Z,16.20
2023-03-21T23:14:17.769Z,16.10
2023-03-21T23:16:45.114Z,16.10
2023-03-21T23:19:12.200Z,16.10
2023-03-21T23:21:40.112Z,16.10
2023-03-21T23:24:08.397Z,16.00
2023-03-21T23:26:35.766Z,16.00
2023-03-21T23:29:04.346Z,16.00
2023-03-21T23:31:33.093Z,16.00
2023-03-21T23:34:00.664Z,16.00
2023-03-21T23:36:27.866Z,15.90
2023-03-21T23:38:54.835Z,15.90
2023-03-21T23:41:23.533Z,15.90
2023-03-21T23:43:51.288Z,15.80
2023-03-21T23:46:19.372Z,15.80
2023-03-21T23:48:46.732Z,15.80
2023-03-21T23:51:16.789Z,15.80
2023-03-21T23:53:45.535Z,15.80
2023-03-21T23:56:20.790Z,15.80
2023-03-21T23:58:49.802Z,15.80
